Time;durP1;ratioP1;P1;durP2;ratioP2;P2;SDS_P1;SDS_P2;PMS_P1;PMS_P2;Temp;Humidity;BMP_temperature;BMP_pressure;BME280_temperature;BME280_humidity;BME280_pressure;Samples;Min_cycle;Max_cycle;Signal;HPM_P1;HPM_P2
2023/03/26 00:01:12;;;;;;;16.57;12.40;;;;;;;;;;10565178;28;20420;-84
2023/03/26 00:06:15;;;;;;;17.67;13.32;;;;;;;;;;10536232;28;20810;-84
2023/03/26 00:11:20;;;;;;;17.10;12.88;;;;;;;;;;10555961;28;20399;-84
2023/03/26 00:16:23;;;;;;;18.10;13.27;;;;;;;;;;10567186;28;20767;-84
2023/03/26 00:21:27;;;;;;;18.53;12.83;;;;;;;;;;10545171;28;20416;-84
2023/03/26 00:26:31;;;;;;;16.60;12.43;;;;;;;;;;10566313;22;20412;-83
2023/03/26 00:31:33;;;;;;;17.27;13.00;;;;;;;;;;10535825;28;20754;-84
2023/03/26 00:36:36;;;;;;;15.50;12.98;;;;;;;;;;10546646;28;20426;-85
2023/03/26 00:41:41;;;;;;;15.82;11.80;;;;;;;;;;10557487;28;20418;-85
2023/03/26 00:46:43;;;;;;;18.40;12.27;;;;;;;;;;10560933;27;20438;-84
2023/03/26 00:51:45;;;;;;;16.00;12.97;;;;;;;;;;10545820;28;20404;-85
2023/03/26 00:56:48;;;;;;;16.23;11.90;;;;;;;;;;10558950;28;20402;-84
2023/03/26 01:01:53;;;;;;;16.52;11.80;;;;;;;;;;10555163;28;20783;-84
2023/03/26 01:06:57;;;;;;;15.23;11.60;;;;;;;;;;10542897;28;20457;-85
2023/03/26 01:12:02;;;;;;;15.07;10.90;;;;;;;;;;10546352;28;20401;-85
2023/03/26 01:17:06;;;;;;;14.57;11.43;;;;;;;;;;10542607;28;20412;-85
2023/03/26 01:22:11;;;;;;;14.07;10.80;;;;;;;;;;10526844;28;20420;-85
2023/03/26 01:27:25;;;;;;;14.18;10.57;;;;;;;;;;10543156;28;20439;-85
2023/03/26 01:32:56;;;;;;;14.20;10.27;;;;;;;;;;10550656;28;20780;-84
2023/03/26 01:38:09;;;;;;;13.57;9.83;;;;;;;;;;10541081;28;20478;-85
2023/03/26 01:43:18;;;;;;;13.48;10.20;;;;;;;;;;10562918;28;20414;-84
2023/03/26 01:48:20;;;;;;;16.13;10.32;;;;;;;;;;10532154;28;20408;-85
2023/03/26 01:53:22;;;;;;;16.98;11.05;;;;;;;;;;10548953;28;20487;-85
2023/03/26 01:58:31;;;;;;;18.65;12.43;;;;;;;;;;10562107;28;20414;-85
2023/03/26 02:03:39;;;;;;;17.65;13.52;;;;;;;;;;10544349;28;20424;-84
2023/03/26 02:08:46;;;;;;;18.25;13.20;;;;;;;;;;10553287;28;20415;-85
2023/03/26 02:13:50;;;;;;;21.63;14.23;;;;;;;;;;10558174;28;20814;-85
2023/03/26 02:18:54;;;;;;;21.15;13.40;;;;;;;;;;10539429;28;20488;-84
2023/03/26 02:24:01;;;;;;;19.80;13.73;;;;;;;;;;10553323;28;20402;-85
2023/03/26 02:29:04;;;;;;;18.60;14.63;;;;;;;;;;10545309;28;20446;-85
2023/03/26 02:34:06;;;;;;;22.47;15.07;;;;;;;;;;10539446;28;20503;-85
2023/03/26 02:39:09;;;;;;;22.42;14.90;;;;;;;;;;10555060;28;20406;-85
2023/03/26 02:44:13;;;;;;;18.90;14.40;;;;;;;;;;10567693;28;20423;-85
2023/03/26 02:49:15;;;;;;;20.33;15.07;;;;;;;;;;10547964;28;20501;-85
2023/03/26 02:54:17;;;;;;;20.10;14.60;;;;;;;;;;10540811;28;20480;-84
2023/03/26 02:59:20;;;;;;;19.73;14.35;;;;;;;;;;10549611;28;20407;-84
2023/03/26 03:04:22;;;;;;;19.80;14.15;;;;;;;;;;10559786;28;20451;-85
2023/03/26 03:09:24;;;;;;;19.05;13.73;;;;;;;;;;10560691;28;20406;-84
2023/03/26 03:14:28;;;;;;;20.05;13.90;;;;;;;;;;10570446;28;20415;-85
2023/03/26 03:19:29;;;;;;;17.80;12.48;;;;;;;;;;10563443;28;20416;-84
2023/03/26 03:24:32;;;;;;;18.75;13.32;;;;;;;;;;10563048;28;20439;-86
2023/03/26 03:29:36;;;;;;;20.10;13.35;;;;;;;;;;10560920;28;20419;-85
2023/03/26 03:34:38;;;;;;;19.10;13.47;;;;;;;;;;10548980;28;20398;-86
2023/03/26 03:39:40;;;;;;;20.00;13.90;;;;;;;;;;10562574;28;20475;-85
2023/03/26 03:44:44;;;;;;;19.60;13.57;;;;;;;;;;10548832;28;20486;-85
2023/03/26 03:49:46;;;;;;;19.98;14.35;;;;;;;;;;10535983;28;20411;-83
2023/03/26 03:54:48;;;;;;;21.25;14.05;;;;;;;;;;10560916;28;20395;-86
2023/03/26 03:59:51;;;;;;;20.00;14.02;;;;;;;;;;10571822;28;20467;-85
2023/03/26 04:04:53;;;;;;;19.15;13.80;;;;;;;;;;10563787;28;20432;-84
2023/03/26 04:09:55;;;;;;;20.17;13.30;;;;;;;;;;10536134;28;20752;-85
2023/03/26 04:14:59;;;;;;;19.20;13.43;;;;;;;;;;10548513;28;20410;-86
2023/03/26 04:20:13;;;;;;;20.73;13.93;;;;;;;;;;10562767;28;20416;-85
2023/03/26 04:25:16;;;;;;;18.63;12.82;;;;;;;;;;10547657;28;20439;-86
2023/03/26 04:30:20;;;;;;;16.98;12.25;;;;;;;;;;10555223;28;20398;-86
2023/03/26 04:35:22;;;;;;;18.45;12.60;;;;;;;;;;10559253;28;20774;-86
2023/03/26 04:40:24;;;;;;;17.02;12.90;;;;;;;;;;10545802;28;20427;-85
2023/03/26 04:45:29;;;;;;;18.13;12.93;;;;;;;;;;10547714;28;20504;-85
2023/03/26 04:50:31;;;;;;;17.67;12.32;;;;;;;;;;10558049;28;20427;-85
2023/03/26 04:55:37;;;;;;;21.63;12.90;;;;;;;;;;10533390;28;20843;-85
2023/03/26 05:00:40;;;;;;;21.58;14.27;;;;;;;;;;10547849;28;20468;-86
2023/03/26 05:05:42;;;;;;;21.35;14.30;;;;;;;;;;10550871;28;20407;-85
2023/03/26 05:10:44;;;;;;;21.93;13.43;;;;;;;;;;10566602;27;20430;-85
2023/03/26 05:15:47;;;;;;;18.60;13.15;;;;;;;;;;10547502;28;20411;-86
2023/03/26 05:20:49;;;;;;;17.23;12.27;;;;;;;;;;10551992;28;20424;-86
2023/03/26 05:25:51;;;;;;;18.67;12.40;;;;;;;;;;10566068;28;20483;-85
2023/03/26 05:30:55;;;;;;;17.40;11.90;;;;;;;;;;10551118;28;21083;-86
2023/03/26 05:36:01;;;;;;;16.53;10.97;;;;;;;;;;10554235;28;20404;-85
2023/03/26 05:41:05;;;;;;;15.60;11.13;;;;;;;;;;10532098;28;20424;-85
2023/03/26 05:46:08;;;;;;;14.77;10.77;;;;;;;;;;10548566;28;20399;-85
2023/03/26 05:51:11;;;;;;;13.95;10.43;;;;;;;;;;10531284;28;20972;-85
2023/03/26 05:56:13;;;;;;;14.83;9.90;;;;;;;;;;10535628;28;20778;-86
2023/03/26 06:01:17;;;;;;;14.93;10.95;;;;;;;;;;10548122;28;20499;-86
2023/03/26 06:06:20;;;;;;;15.67;10.30;;;;;;;;;;10550813;28;20401;-85
2023/03/26 06:11:22;;;;;;;14.50;11.02;;;;;;;;;;10536051;28;20423;-86
2023/03/26 06:16:25;;;;;;;15.68;11.00;;;;;;;;;;10556449;28;20491;-86
2023/03/26 06:21:28;;;;;;;16.15;11.57;;;;;;;;;;10539426;28;20462;-85
2023/03/26 06:26:29;;;;;;;15.20;10.93;;;;;;;;;;10544800;28;20876;-85
2023/03/26 06:31:33;;;;;;;15.13;10.70;;;;;;;;;;10565081;28;20502;-86
2023/03/26 06:36:35;;;;;;;16.25;11.45;;;;;;;;;;10563499;28;20402;-85
2023/03/26 06:41:37;;;;;;;16.88;11.40;;;;;;;;;;10567213;27;20420;-86
2023/03/26 06:46:40;;;;;;;14.33;10.97;;;;;;;;;;10555334;28;20905;-85
2023/03/26 06:51:42;;;;;;;14.03;11.07;;;;;;;;;;10563829;28;20495;-86
2023/03/26 06:56:44;;;;;;;14.30;10.75;;;;;;;;;;10544295;28;20404;-85
2023/03/26 07:01:47;;;;;;;13.45;9.88;;;;;;;;;;10565241;28;21089;-85
2023/03/26 07:06:49;;;;;;;14.95;11.15;;;;;;;;;;10561956;28;20404;-85
2023/03/26 07:11:51;;;;;;;16.88;11.48;;;;;;;;;;10540344;28;20396;-85
2023/03/26 07:16:54;;;;;;;15.33;11.00;;;;;;;;;;10550911;28;20414;-85
2023/03/26 07:21:57;;;;;;;17.33;11.57;;;;;;;;;;10562184;28;20778;-86
2023/03/26 07:27:06;;;;;;;16.17;11.80;;;;;;;;;;10561103;28;20435;-85
2023/03/26 07:32:19;;;;;;;14.63;10.25;;;;;;;;;;10559972;28;20410;-85
2023/03/26 07:37:33;;;;;;;15.43;10.60;;;;;;;;;;10570004;28;20482;-85
2023/03/26 07:42:58;;;;;;;16.08;10.10;;;;;;;;;;10561634;28;20440;-84
2023/03/26 07:48:03;;;;;;;9.50;6.97;;;;;;;;;;10571100;28;20498;-84
2023/03/26 07:53:05;;;;;;;5.77;4.17;;;;;;;;;;10571462;28;20396;-84
2023/03/26 07:58:33;;;;;;;4.33;3.20;;;;;;;;;;10554149;28;20462;-83
2023/03/26 08:04:06;;;;;;;4.35;3.13;;;;;;;;;;10554957;28;20422;-84
2023/03/26 08:09:16;;;;;;;9.32;5.78;;;;;;;;;;10554032;28;20410;-84
2023/03/26 08:14:32;;;;;;;5.13;3.53;;;;;;;;;;10541326;28;20507;-84
2023/03/26 08:19:48;;;;;;;4.80;3.50;;;;;;;;;;10560310;28;20410;-83
2023/03/26 08:25:03;;;;;;;4.43;3.22;;;;;;;;;;10556029;28;20425;-84
2023/03/26 08:30:09;;;;;;;3.80;3.38;;;;;;;;;;10556779;28;20415;-83
2023/03/26 08:35:15;;;;;;;4.53;3.40;;;;;;;;;;10563339;28;20408;-83
2023/03/26 08:40:24;;;;;;;4.80;3.30;;;;;;;;;;10555749;28;20900;-84
2023/03/26 08:45:54;;;;;;;3.90;3.20;;;;;;;;;;10557064;28;21118;-83
2023/03/26 08:51:40;;;;;;;4.22;2.95;;;;;;;;;;10560220;28;20394;-83
2023/03/26 08:56:52;;;;;;;3.28;2.97;;;;;;;;;;10555429;28;20418;-83
2023/03/26 09:02:28;;;;;;;3.25;2.70;;;;;;;;;;10556806;28;20424;-83
2023/03/26 09:08:02;;;;;;;3.97;3.08;;;;;;;;;;10556955;28;20420;-84
2023/03/26 09:13:50;;;;;;;4.05;3.20;;;;;;;;;;10553824;28;20933;-83
2023/03/26 09:19:14;;;;;;;6.00;2.55;;;;;;;;;;10537958;28;20430;-83
2023/03/26 09:25:00;;;;;;;3.03;2.33;;;;;;;;;;10549051;28;20425;-84
2023/03/26 09:30:38;;;;;;;2.92;2.30;;;;;;;;;;10543697;28;20783;-84
2023/03/26 09:35:53;;;;;;;7.72;4.78;;;;;;;;;;10549224;28;20407;-89
2023/03/26 09:41:02;;;;;;;2.77;2.10;;;;;;;;;;10544468;28;20513;-86
2023/03/26 09:46:20;;;;;;;3.95;2.45;;;;;;;;;;10545191;28;20399;-85
2023/03/26 09:51:35;;;;;;;3.40;2.80;;;;;;;;;;10543836;28;20919;-85
2023/03/26 09:56:49;;;;;;;3.57;2.77;;;;;;;;;;10541153;28;20419;-85
2023/03/26 10:01:57;;;;;;;5.83;4.00;;;;;;;;;;10541264;28;20520;-85
2023/03/26 10:07:05;;;;;;;6.57;4.00;;;;;;;;;;10553501;28;20404;-85
2023/03/26 10:12:22;;;;;;;4.50;3.50;;;;;;;;;;10545947;28;20397;-85
2023/03/26 10:17:46;;;;;;;4.20;3.42;;;;;;;;;;10547282;28;21027;-85
2023/03/26 10:23:00;;;;;;;4.78;3.75;;;;;;;;;;10550042;28;20448;-85
2023/03/26 10:28:17;;;;;;;4.83;3.00;;;;;;;;;;10542342;28;20432;-85
2023/03/26 10:33:28;;;;;;;3.63;2.97;;;;;;;;;;10544764;28;20536;-85
2023/03/26 10:38:52;;;;;;;3.92;2.85;;;;;;;;;;10551142;28;20459;-86
2023/03/26 10:44:21;;;;;;;5.75;4.40;;;;;;;;;;10542603;28;20424;-85
2023/03/26 10:49:41;;;;;;;4.05;3.30;;;;;;;;;;10545707;28;20419;-85
2023/03/26 10:54:53;;;;;;;5.93;3.60;;;;;;;;;;10543588;28;20415;-85
2023/03/26 11:00:00;;;;;;;5.63;4.25;;;;;;;;;;10542997;28;20419;-86
2023/03/26 11:05:26;;;;;;;5.88;3.90;;;;;;;;;;10557008;28;20422;-85
2023/03/26 11:10:39;;;;;;;4.38;3.80;;;;;;;;;;10537207;28;20521;-85
2023/03/26 11:15:48;;;;;;;5.82;4.13;;;;;;;;;;10562085;28;20412;-86
2023/03/26 11:20:56;;;;;;;6.80;4.77;;;;;;;;;;10555914;28;20414;-85
2023/03/26 11:26:07;;;;;;;7.53;5.50;;;;;;;;;;10558956;28;20410;-86
2023/03/26 11:31:19;;;;;;;7.00;4.55;;;;;;;;;;10552979;28;20469;-85
2023/03/26 11:36:25;;;;;;;7.67;4.20;;;;;;;;;;10555846;28;20396;-85
2023/03/26 11:41:29;;;;;;;5.68;4.03;;;;;;;;;;10562549;28;20509;-85
2023/03/26 11:46:43;;;;;;;7.97;4.00;;;;;;;;;;10563471;28;20395;-84
2023/03/26 11:51:47;;;;;;;5.07;3.75;;;;;;;;;;10561884;28;20912;-84
2023/03/26 11:56:54;;;;;;;6.43;3.75;;;;;;;;;;10548247;28;20499;-84
2023/03/26 12:01:59;;;;;;;6.30;3.88;;;;;;;;;;10546842;28;20415;-83
2023/03/26 12:07:09;;;;;;;6.53;3.50;;;;;;;;;;10558325;28;20500;-83
2023/03/26 12:12:12;;;;;;;4.93;3.65;;;;;;;;;;10553983;28;20416;-84
2023/03/26 12:17:27;;;;;;;6.40;3.38;;;;;;;;;;10564110;28;20407;-83
2023/03/26 12:22:35;;;;;;;5.53;3.63;;;;;;;;;;10559322;28;20423;-83
2023/03/26 12:27:40;;;;;;;8.27;3.60;;;;;;;;;;10557113;28;21162;-84
2023/03/26 12:32:44;;;;;;;6.38;3.67;;;;;;;;;;10543188;27;20419;-83
2023/03/26 12:37:47;;;;;;;5.63;3.70;;;;;;;;;;10540966;28;20547;-83
2023/03/26 12:42:52;;;;;;;6.53;3.50;;;;;;;;;;10548902;28;20571;-84
2023/03/26 12:47:57;;;;;;;5.70;3.53;;;;;;;;;;10538290;28;21145;-85
2023/03/26 12:53:18;;;;;;;5.77;3.90;;;;;;;;;;10541004;28;21228;-85
2023/03/26 12:58:53;;;;;;;7.00;4.33;;;;;;;;;;10541010;28;21087;-85
2023/03/26 13:04:17;;;;;;;5.18;4.05;;;;;;;;;;10530610;28;20427;-84
2023/03/26 13:09:36;;;;;;;6.77;4.13;;;;;;;;;;10538728;28;20407;-85
2023/03/26 13:14:56;;;;;;;6.97;4.38;;;;;;;;;;10540378;28;20415;-83
2023/03/26 13:20:10;;;;;;;9.60;4.00;;;;;;;;;;10541203;28;20435;-83
2023/03/26 13:25:25;;;;;;;4.90;4.17;;;;;;;;;;10533217;28;20420;-83
2023/03/26 13:30:36;;;;;;;6.47;4.50;;;;;;;;;;10540189;28;20442;-83
2023/03/26 13:35:47;;;;;;;7.75;4.88;;;;;;;;;;10545451;28;20441;-84
2023/03/26 13:40:57;;;;;;;8.23;5.40;;;;;;;;;;10534874;28;20704;-84
2023/03/26 13:46:06;;;;;;;9.40;5.40;;;;;;;;;;10541048;28;20426;-84
2023/03/26 13:51:14;;;;;;;6.95;5.30;;;;;;;;;;10543514;28;20436;-84
2023/03/26 13:56:20;;;;;;;10.23;5.60;;;;;;;;;;10541598;28;20415;-84
2023/03/26 14:01:32;;;;;;;9.68;5.20;;;;;;;;;;10542005;28;20404;-83
2023/03/26 14:06:45;;;;;;;9.63;5.28;;;;;;;;;;10528533;28;20440;-84
2023/03/26 14:12:00;;;;;;;8.10;5.13;;;;;;;;;;10537974;28;20419;-85
2023/03/26 14:17:06;;;;;;;9.38;4.93;;;;;;;;;;10550849;28;20403;-84
2023/03/26 14:22:17;;;;;;;7.45;4.68;;;;;;;;;;10531520;28;20912;-84
2023/03/26 14:27:37;;;;;;;6.67;4.77;;;;;;;;;;10541527;28;20419;-85
2023/03/26 14:32:54;;;;;;;7.77;4.60;;;;;;;;;;10542566;28;20437;-84
2023/03/26 14:38:38;;;;;;;6.68;4.10;;;;;;;;;;10543400;28;20484;-84
2023/03/26 14:44:23;;;;;;;5.40;4.10;;;;;;;;;;10554396;28;20420;-84
2023/03/26 14:49:55;;;;;;;9.15;3.90;;;;;;;;;;10530471;28;20396;-84
2023/03/26 14:55:01;;;;;;;7.88;4.43;;;;;;;;;;10474572;28;20406;-85
2023/03/26 15:00:41;;;;;;;6.65;3.65;;;;;;;;;;10548390;28;20415;-85
2023/03/26 15:06:32;;;;;;;9.20;4.00;;;;;;;;;;10544286;28;20426;-84
2023/03/26 15:11:45;;;;;;;7.70;3.92;;;;;;;;;;10472213;28;20491;-84
2023/03/26 15:17:27;;;;;;;8.73;3.80;;;;;;;;;;10554807;28;20477;-84
2023/03/26 15:22:52;;;;;;;7.50;3.40;;;;;;;;;;10545417;28;20428;-84
2023/03/26 15:28:21;;;;;;;6.97;3.63;;;;;;;;;;10555708;28;20413;-84
2023/03/26 15:33:52;;;;;;;7.38;3.85;;;;;;;;;;10543077;28;20412;-84
2023/03/26 15:39:43;;;;;;;9.77;4.03;;;;;;;;;;10549533;28;20892;-84
2023/03/26 15:44:54;;;;;;;7.93;4.28;;;;;;;;;;10529135;28;20517;-83
2023/03/26 15:50:08;;;;;;;11.75;4.85;;;;;;;;;;10551978;28;20417;-84
2023/03/26 15:55:26;;;;;;;7.75;4.47;;;;;;;;;;10549599;28;20431;-84
2023/03/26 16:00:32;;;;;;;10.68;5.32;;;;;;;;;;10547789;28;20807;-84
2023/03/26 16:05:53;;;;;;;9.52;4.80;;;;;;;;;;10545985;28;20421;-84
2023/03/26 16:10:56;;;;;;;7.72;4.95;;;;;;;;;;10551463;28;20830;-79
2023/03/26 16:16:19;;;;;;;13.93;4.50;;;;;;;;;;10551781;28;20408;-83
2023/03/26 16:21:44;;;;;;;11.50;5.22;;;;;;;;;;10545499;28;20482;-83
2023/03/26 16:26:59;;;;;;;10.45;5.30;;;;;;;;;;10554214;28;20415;-83
2023/03/26 16:32:24;;;;;;;9.35;4.90;;;;;;;;;;10550482;28;20914;-84
2023/03/26 16:37:38;;;;;;;9.80;5.40;;;;;;;;;;10547351;28;20460;-83
2023/03/26 16:42:45;;;;;;;9.27;5.63;;;;;;;;;;10545434;28;20429;-83
2023/03/26 16:47:56;;;;;;;10.60;4.55;;;;;;;;;;10551227;28;20523;-82
2023/03/26 16:53:15;;;;;;;8.02;4.20;;;;;;;;;;10546992;28;20550;-83
2023/03/26 16:58:29;;;;;;;10.80;4.80;;;;;;;;;;10543206;28;20400;-83
2023/03/26 17:03:44;;;;;;;10.00;5.20;;;;;;;;;;10548077;28;20426;-81
2023/03/26 17:08:56;;;;;;;11.77;4.70;;;;;;;;;;10547035;28;20967;-84
2023/03/26 17:14:06;;;;;;;9.70;5.15;;;;;;;;;;10548493;28;20426;-83
2023/03/26 17:19:21;;;;;;;9.70;6.60;;;;;;;;;;10548038;28;20791;-83
2023/03/26 17:24:39;;;;;;;12.68;5.85;;;;;;;;;;10545409;28;20432;-83
2023/03/26 17:30:02;;;;;;;10.80;6.93;;;;;;;;;;10547677;28;20497;-83
2023/03/26 17:35:06;;;;;;;16.20;8.57;;;;;;;;;;10539798;28;20492;-83
2023/03/26 17:40:30;;;;;;;7.27;3.40;;;;;;;;;;10549711;28;20403;-83
2023/03/26 17:45:35;;;;;;;6.15;4.32;;;;;;;;;;10544280;28;20416;-84
2023/03/26 17:50:45;;;;;;;3.13;1.87;;;;;;;;;;10539912;28;20412;-85
2023/03/26 17:55:50;;;;;;;3.50;2.30;;;;;;;;;;10552440;28;20554;-85
2023/03/26 18:00:59;;;;;;;3.40;2.25;;;;;;;;;;10557030;28;20404;-85
2023/03/26 18:06:08;;;;;;;3.90;2.20;;;;;;;;;;10557863;28;20412;-84
2023/03/26 18:11:28;;;;;;;4.00;2.28;;;;;;;;;;10557591;28;20412;-84
2023/03/26 18:16:37;;;;;;;3.53;2.67;;;;;;;;;;10557581;28;20455;-85
2023/03/26 18:21:40;;;;;;;5.07;3.30;;;;;;;;;;10561169;28;20398;-85
2023/03/26 18:26:45;;;;;;;2.65;1.98;;;;;;;;;;10561798;28;20790;-84
2023/03/26 18:31:50;;;;;;;3.58;2.50;;;;;;;;;;10560472;28;20499;-85
2023/03/26 18:37:09;;;;;;;3.00;2.38;;;;;;;;;;10561375;28;20410;-84
2023/03/26 18:42:21;;;;;;;4.17;3.20;;;;;;;;;;10556198;28;20501;-85
2023/03/26 18:47:23;;;;;;;4.60;2.40;;;;;;;;;;10534709;28;20764;-85
2023/03/26 18:52:28;;;;;;;10.20;7.75;;;;;;;;;;10536171;28;20400;-86
2023/03/26 18:57:31;;;;;;;4.78;2.55;;;;;;;;;;10552470;28;20498;-86
2023/03/26 19:02:33;;;;;;;4.10;2.40;;;;;;;;;;10558461;28;20514;-85
2023/03/26 19:07:37;;;;;;;2.92;2.40;;;;;;;;;;10558489;28;20475;-84
2023/03/26 19:12:41;;;;;;;2.90;2.27;;;;;;;;;;10545937;28;20935;-81
2023/03/26 19:17:45;;;;;;;2.57;2.17;;;;;;;;;;10555548;28;20400;-86
2023/03/26 19:22:48;;;;;;;2.63;1.73;;;;;;;;;;10563418;28;20444;-86
2023/03/26 19:27:52;;;;;;;3.42;2.22;;;;;;;;;;10566995;28;20494;-85
2023/03/26 19:32:54;;;;;;;3.53;2.40;;;;;;;;;;10562907;28;20500;-86
2023/03/26 19:37:56;;;;;;;2.37;2.07;;;;;;;;;;10560979;28;20415;-84
2023/03/26 19:42:59;;;;;;;2.55;2.08;;;;;;;;;;10550435;28;20906;-86
2023/03/26 19:48:01;;;;;;;2.45;2.03;;;;;;;;;;10551379;28;20406;-85
2023/03/26 19:53:16;;;;;;;2.78;2.28;;;;;;;;;;10545527;28;20422;-85
2023/03/26 19:58:20;;;;;;;2.85;2.55;;;;;;;;;;10551538;28;20767;-85
2023/03/26 20:03:26;;;;;;;3.63;3.00;;;;;;;;;;10546978;28;20472;-85
2023/03/26 20:08:28;;;;;;;3.95;2.50;;;;;;;;;;10553361;28;20499;-84
2023/03/26 20:13:31;;;;;;;3.30;2.38;;;;;;;;;;10556046;28;20404;-85
2023/03/26 20:18:34;;;;;;;3.38;2.85;;;;;;;;;;10550050;28;20513;-85
2023/03/26 20:23:35;;;;;;;3.85;3.45;;;;;;;;;;10552335;28;20421;-85
2023/03/26 20:28:39;;;;;;;5.20;3.80;;;;;;;;;;10547875;28;20494;-85
2023/03/26 20:33:41;;;;;;;4.35;3.25;;;;;;;;;;10543292;28;20438;-85
2023/03/26 20:38:45;;;;;;;4.40;3.22;;;;;;;;;;10560189;28;20836;-85
2023/03/26 20:43:49;;;;;;;5.10;2.90;;;;;;;;;;10550360;28;20774;-85
2023/03/26 20:48:51;;;;;;;2.33;1.58;;;;;;;;;;10546235;28;20485;-86
2023/03/26 20:53:53;;;;;;;3.22;1.80;;;;;;;;;;10551233;28;20399;-84
2023/03/26 20:58:57;;;;;;;2.23;1.67;;;;;;;;;;10544609;28;20408;-85
2023/03/26 21:04:00;;;;;;;2.60;1.90;;;;;;;;;;10542356;28;20831;-84
2023/03/26 21:09:03;;;;;;;2.37;1.90;;;;;;;;;;10538556;28;20408;-85
2023/03/26 21:14:14;;;;;;;2.42;1.80;;;;;;;;;;10541866;27;20483;-84
2023/03/26 21:19:16;;;;;;;2.37;1.77;;;;;;;;;;10548578;28;20405;-84
2023/03/26 21:24:28;;;;;;;2.10;1.30;;;;;;;;;;10550197;28;20448;-85
2023/03/26 21:29:32;;;;;;;2.53;1.42;;;;;;;;;;10561852;28;20426;-85
2023/03/26 21:34:34;;;;;;;2.33;1.50;;;;;;;;;;10561991;28;20515;-86
2023/03/26 21:39:37;;;;;;;2.60;2.10;;;;;;;;;;10564767;28;20425;-86
2023/03/26 21:44:41;;;;;;;3.00;2.40;;;;;;;;;;10554362;28;20414;-85
2023/03/26 21:49:44;;;;;;;2.95;2.47;;;;;;;;;;10561181;28;20845;-83
2023/03/26 21:54:46;;;;;;;3.30;2.30;;;;;;;;;;10563349;28;20489;-86
2023/03/26 21:59:58;;;;;;;2.70;2.08;;;;;;;;;;10560995;28;20407;-86
2023/03/26 22:05:04;;;;;;;3.42;2.00;;;;;;;;;;10564788;28;20517;-85
2023/03/26 22:10:07;;;;;;;1.83;1.63;;;;;;;;;;10566760;28;20406;-85
2023/03/26 22:15:12;;;;;;;2.58;1.60;;;;;;;;;;10552844;28;20430;-86
2023/03/26 22:20:15;;;;;;;2.25;1.98;;;;;;;;;;10563897;28;20417;-86
2023/03/26 22:25:18;;;;;;;2.75;2.15;;;;;;;;;;10567457;28;20891;-86
2023/03/26 22:30:21;;;;;;;2.10;1.90;;;;;;;;;;10552409;28;20404;-85
2023/03/26 22:35:23;;;;;;;1.90;1.70;;;;;;;;;;10565043;28;20399;-85
2023/03/26 22:40:25;;;;;;;2.27;1.87;;;;;;;;;;10563912;28;20403;-86
2023/03/26 22:45:28;;;;;;;2.33;1.50;;;;;;;;;;10561035;28;20422;-86
2023/03/26 22:50:30;;;;;;;3.17;1.88;;;;;;;;;;10561952;28;20744;-86
2023/03/26 22:55:32;;;;;;;1.52;1.42;;;;;;;;;;10559357;28;20394;-86
2023/03/26 23:00:35;;;;;;;2.13;1.63;;;;;;;;;;10552136;28;20509;-86
2023/03/26 23:05:38;;;;;;;1.50;1.40;;;;;;;;;;10561773;28;20414;-86
2023/03/26 23:10:42;;;;;;;1.95;1.60;;;;;;;;;;10553775;28;20408;-86
2023/03/26 23:15:48;;;;;;;1.75;1.63;;;;;;;;;;10542776;28;20407;-86
2023/03/26 23:20:51;;;;;;;1.60;1.40;;;;;;;;;;10559908;28;20413;-86
2023/03/26 23:25:53;;;;;;;2.13;1.73;;;;;;;;;;10570014;28;20764;-86
2023/03/26 23:30:57;;;;;;;1.90;1.70;;;;;;;;;;10547199;28;20412;-85
2023/03/26 23:35:59;;;;;;;2.10;1.88;;;;;;;;;;10555504;28;20757;-86
2023/03/26 23:41:02;;;;;;;1.90;1.60;;;;;;;;;;10564720;28;20394;-86
2023/03/26 23:46:09;;;;;;;2.20;1.65;;;;;;;;;;10548888;27;20784;-85
2023/03/26 23:51:11;;;;;;;2.08;1.88;;;;;;;;;;10553564;28;20415;-86
2023/03/26 23:56:14;;;;;;;2.60;2.10;;;;;;;;;;10536779;28;20419;-86
